METAR AND TAF INFORMATION
METAR FOR LXGB
ADDS - METARS form results

(1847 UTC 02 February 2023)
Data provider http://aviationweather.gov/metar/data/
 
METAR text: LXGB 021820Z 09012KT 9999 FEW025 14/08 Q1029 NOSIG RMK BLU BLU
Conditions at: LXGB (GIBRALTAR (CIV/M, GI) observed 1820 UTC 02 February 2023
Temperature: 14.0°C (57°F)
Dewpoint: 8.0°C (46°F) [RH = 67%]
Pressure (altimeter): 30.38 inches Hg (1029.0 mb)
Winds: from the E (90 degrees) at 14 MPH (12 knots; 6.2 m/s)
Visibility: 6 or more miles (10+ km)
Ceiling: at least 12,000 feet AGL
Clouds: few clouds at 2500 feet AGL
Weather: no significant weather observed at this time

METAR text: LXGB 021750Z 09012KT 9999 FEW025 14/08 Q1029 NOSIG RMK BLU BLU
Conditions at: LXGB (GIBRALTAR (CIV/M, GI) observed 1750 UTC 02 February 2023
Temperature: 14.0°C (57°F)
Dewpoint: 8.0°C (46°F) [RH = 67%]
Pressure (altimeter): 30.38 inches Hg (1029.0 mb)
Winds: from the E (90 degrees) at 14 MPH (12 knots; 6.2 m/s)
Visibility: 6 or more miles (10+ km)
Ceiling: at least 12,000 feet AGL
Clouds: few clouds at 2500 feet AGL
Weather: no significant weather observed at this time

Forecast for: LXGB (GIBRALTAR (CIV/M, GI)
Text: TAF LXGB 021627Z 0218/0223 07012KT 9999 FEW015
Forecast period: 1800 to 2300 UTC 02 February 2023
Forecast type: FROM: standard forecast or significant change
Winds: from the ENE (70 degrees) at 14 MPH (12 knots; 6.2 m/s)
Visibility: 6 or more miles (10+ km)
Ceiling: at least 12,000 feet AGL
Clouds: few clouds at 1500 feet AGL
Weather: no significant weather forecast for this period
Text: PROB30
Forecast period: 2000 to 2300 UTC 02 February 2023
Forecast type: TEMPORARY: The following changes expected for less than half the time period
Visibility: missing
Ceiling: at least 12,000 feet AGL
Clouds: scattered clouds at 2200 feet AGL
Weather: no significant weather forecast for this period

 AIRPORT MAP

 RUNWAY INFORMATION
Runway 09 Runway length 6000 ft Runway width 150 ft
Runway elevation 10 ft Runway displaced threshold 302 ft Runway heading 88
Runway 27 Runway length 6000 ft Runway width 150 ft
Runway elevation 11 ft Runway displaced threshold 368 ft Runway heading 268

 AIRPORT FREQUENCIES
Type A/D Name APP Frequency 122.8 MHZ
Type OPS Name GIB TALKDO Frequency 130.4 MHZ
Type TWR Name TWR Frequency 131.2 MHZ

 AIRPORT NEAR NAVIGATION AIDS
Type TACAN Name Gibraltar Frequency 113600 KHZ



Powered by Virtual Airlines Manager [v2.6.2]



This site has no connection with the actual Aegean Airlines®.
The site was designed exclusively for use in conjunction with Microsoft Flight Simulator™, Prepar3D™ and X-plane™.
Any References to Microsoft, Aegean, Airbus, Boeing, etc. are legally owned by the manufacturers and their owners.
Our views and activities are quite different from those of the real Aegean Airlines®. Everything is virtual. Resources and information cannot be used on real flights but only for virtual ones.

Everything was created for entertainment only